• Join FlightAware (Why Join?)
  • Login
  • US Flag 
12:10AM EDT


 

Airport Tracker/Info


-or-


 

Live Flight TrackerFlight Track Log ✈ AWE1600 ✈ 19-Apr-2013 ✈ KPHL - KDTW

Flight Track Log - Related Links

Times and Time Zones

All times are in EDT time to prevent confusion due to time zone crossing. See the AWE1600 flight status page for this flight to view local times or setup timezone preferences in your user account.

Time Position Orientation Groundspeed Altitude Reporting Facility
EDT Latitude Longitude Course Direction KTS MPH feet Rate Location/Type
09:28AM 39.8775 -75.2169 270° West 160 184 900  Level FAA TRACON SMA TRACON (SMA)
09:29AM 39.8836 -75.2003 64° Northeast 189 217 1,200 1,260 Climbing FAA TRACON SMA TRACON (SMA)
09:29AM 39.8925 -75.1792 61° Northeast 206 237 1,800 1,740 Climbing FAA TRACON SMA TRACON (SMA)
09:29AM 39.9044 -75.1503 62° Northeast 239 275 2,400 2,460 Climbing FAA TRACON SMA TRACON (SMA)
09:30AM 39.9147 -75.1239 63° Northeast 259 298 3,400 3,120 Climbing FAA TRACON SMA TRACON (SMA)
09:30AM 39.9250 -75.0975 63° Northeast 265 305 4,500 3,180 Climbing FAA TRACON SMA TRACON (SMA)
09:30AM 39.9406 -75.0656 58° Northeast 286 329 5,600 3,000 Climbing FAA TRACON SMA TRACON (SMA)
09:31AM 39.9000 -75.6002 288° West  Level FlightAware Approximate
09:31AM 39.9619 -75.0475 33° Northeast 313 360 6,500  Level FAA TRACON SMA TRACON (SMA)
09:31AM 39.9881 -75.0464 North 307 353 7,400 3,060 Climbing FAA TRACON SMA TRACON (SMA)
09:31AM 40.0147 -75.0672 329° Northwest 289 333 8,500 2,880 Climbing FAA TRACON SMA TRACON (SMA)
09:32AM 39.9075 -75.7221 258° West  Level FlightAware Approximate
09:32AM 40.0253 -75.0953 296° West 266 306 9,400  Level FAA TRACON SMA TRACON (SMA)
09:32AM 40.0239 -75.1317 267° West 251 289 9,900 900 Climbing FAA TRACON SMA TRACON (SMA)
09:32AM 40.0181 -75.1592 255° West 269 310 10,000 120 Climbing FAA TRACON SMA TRACON (SMA)
09:33AM 39.9001 -75.8476 270° West  Level FlightAware Approximate
09:33AM 40.0125 -75.1894 257° West 278 320 10,000  Level FAA TRACON SMA TRACON (SMA)
09:33AM 40.0053 -75.2275 256° West 284 327 10,000  Level FAA TRACON SMA TRACON (SMA)
09:34AM 39.9931 -75.2894 256° West 292 336 10,000  Level FAA TRACON SMA TRACON (SMA)
09:34AM 39.9847 -75.3300 255° West 294 338 10,000  Level FAA TRACON SMA TRACON (SMA)
09:34AM 39.9789 -75.3611 256° West 294 338 10,000  Level FAA TRACON SMA TRACON (SMA)
09:35AM 39.9725 -75.3931 255° West 294 338 10,000  Level FAA TRACON SMA TRACON (SMA)
09:35AM 39.9706 -75.4353 267° West 314 361 10,000  Level FAA TRACON SMA TRACON (SMA)
09:35AM 39.9697 -75.4681 268° West 310 357 10,000  Level FAA TRACON SMA TRACON (SMA)
09:36AM 39.9689 -75.5033 268° West 308 354 10,000 120 Level FAA TRACON SMA TRACON (SMA)
09:36AM 39.9675 -75.5461 268° West 308 354 10,100 900 Climbing FAA TRACON SMA TRACON (SMA)
09:36AM 39.9664 -75.5806 268° West 310 357 10,600 2,460 Climbing FAA TRACON SMA TRACON (SMA)
09:37AM 39.9650 -75.6222 268° West 314 361 11,800 3,300 Climbing FAA TRACON SMA TRACON (SMA)
09:37AM 39.9639 -75.6583 268° West 319 367 12,800 3,060 Climbing FAA TRACON SMA TRACON (SMA)
09:37AM 39.9628 -75.6967 268° West 322 371 13,800 2,520 Climbing FAA TRACON SMA TRACON (SMA)
09:38AM 39.9619 -75.7328 268° West 324 373 14,500 2,460 Climbing FAA TRACON SMA TRACON (SMA)
09:38AM 39.9603 -75.7794 267° West 332 382 15,500 2,820 Climbing FAA TRACON SMA TRACON (SMA)
09:38AM 39.9594 -75.8175 268° West 338 389 16,400 2,520 Climbing FAA TRACON SMA TRACON (SMA)
09:39AM 39.9581 -75.8644 268° West 342 394 17,200 2,400 Climbing FAA TRACON SMA TRACON (SMA)
09:39AM 39.9567 -75.9047 267° West 348 400 18,000 780 Climbing FAA TRACON SMA TRACON (SMA)
09:40AM 39.9567 -75.9047 207° Southwest 348 400 18,000 2,100 Level FAA TRACON SMA TRACON (SMA)
09:41AM 39.9533 -76.1950 269° West 370 426 22,600 1,980 Climbing New York Center
09:42AM 39.9406 -76.3347 263° West 383 441 23,000 480 Climbing New York Center
09:43AM 39.9358 -76.4781 268° West 388 447 23,600 1,260 Climbing New York Center
09:44AM 39.9311 -76.6183 268° West 388 447 25,600 1,620 Climbing New York Center
09:45AM 39.9383 -76.7625 274° West 393 452 26,900 1,260 Climbing New York Center
09:46AM 39.9664 -76.9058 284° West 404 465 28,200 1,140 Climbing New York Center
09:47AM 39.9939 -77.0600 283° West 421 484 29,300 1,200 Climbing New York Center
09:48AM 40.0208 -77.2144 283° West 432 497 30,600 1,320 Climbing New York Center
09:49AM 40.0503 -77.3636 285° West 432 497 32,000 1,500 Climbing New York Center
09:50AM 40.0792 -77.5128 284° West 437 503 33,600 780 Climbing New York Center
09:51AM 40.1167 -77.7189 283° West 421 484 34,000 120 Climbing Cleveland Center
09:52AM 40.1389 -77.8644 281° West 416 479 34,000  Level Cleveland Center
09:53AM 40.1361 -78.0058 269° West 416 479 34,000  Level Cleveland Center
09:54AM 40.1372 -78.1525 271° West 416 479 34,000  Level Cleveland Center
09:55AM 40.1528 -78.3014 278° West 416 479 34,000  Level Cleveland Center
09:56AM 40.1847 -78.4497 286° West 422 486 34,000  Level Cleveland Center
09:57AM 40.2167 -78.5956 286° West 427 491 34,000  Level Cleveland Center
09:58AM 40.2503 -78.7414 287° West 427 491 34,000  Level Cleveland Center
09:59AM 40.2839 -78.8903 287° West 427 491 34,000  Level Cleveland Center
10:00AM 40.3131 -79.0392 284° West 427 491 34,000  Level Cleveland Center
10:01AM 40.3483 -79.1883 287° West 427 491 34,000  Level Cleveland Center
10:02AM 40.3772 -79.3347 285° West 427 491 34,000  Level Cleveland Center
10:03AM 40.4411 -79.4700 302° West 432 497 34,000  Level Cleveland Center
10:04AM 40.5297 -79.5889 314° West 439 505 34,000 -420 Level Cleveland Center
10:05AM 40.6122 -79.7133 311° West 449 517 33,200 -1,080 Descending Cleveland Center
10:06AM 40.6631 -79.8550 295° West 442 509 31,900 -1,500 Descending Cleveland Center
10:07AM 40.7097 -79.9969 293° West 429 494 30,200 -960 Descending Cleveland Center
10:08AM 40.7564 -80.1444 293° West 424 488 30,000 -120 Descending Cleveland Center
10:09AM 40.8006 -80.2897 292° West 429 494 30,000  Level Cleveland Center
10:10AM 40.8447 -80.4350 292° West 435 501 30,000  Level Cleveland Center
10:11AM 40.8886 -80.5775 292° West 430 495 30,000  Level Cleveland Center
10:12AM 40.9322 -80.7206 292° West 430 495 30,000  Level Cleveland Center
10:13AM 40.9758 -80.8636 292° West 430 495 30,000  Level Cleveland Center
10:14AM 41.0192 -81.0069 292° West 430 495 30,000  Level Cleveland Center
10:15AM 41.0600 -81.1503 291° West 430 495 30,000  Level Cleveland Center
10:16AM 41.1156 -81.2997 296° West 437 503 30,100 -60 Climbing Cleveland Center
10:17AM 41.1792 -81.4522 299° West 437 503 29,900 -720 Descending Cleveland Center
10:18AM 41.2364 -81.5883 299° West 430 495 28,700 -1,260 Descending Cleveland Center
10:19AM 41.2853 -81.7106 298° West 435 501 27,400 -1,440 Descending Cleveland Center
10:20AM 41.3403 -81.8414 299° West 418 481 25,900 -1,800 Descending Cleveland Center
10:21AM 41.3931 -81.9669 299° West 398 458 23,900 -2,340 Descending Cleveland Center
10:22AM 41.4456 -82.0900 300° West 393 452 21,300 -2,820 Descending Cleveland Center
10:23AM 41.4939 -82.2131 298° West 387 445 18,300 -2,820 Descending Cleveland Center
10:24AM 41.5442 -82.3364 299° West 382 440 15,700 -2,400 Descending Cleveland Center
10:25AM 41.5722 -82.4039 299° West 374 430 14,900 -1,800 Descending Cleveland Center
10:25AM 41.5983 -82.4658 299° West 375 432 14,000 -1,680 Descending Cleveland Center
10:26AM 41.6444 -82.5783 299° West 372 428 12,500 -1,020 Descending Cleveland Center
10:27AM 41.6964 -82.7106 298° West 363 418 12,000 -240 Descending Cleveland Center
10:28AM 41.7486 -82.8097 305° West 370 426 12,000  Level Cleveland Center
10:29AM 41.8281 -82.9044 318° Northwest 376 433 12,000  Level Cleveland Center
10:30AM 41.9094 -83.0022 318° Northwest 381 438 12,000  Level Cleveland Center
10:31AM 41.9906 -83.1003 318° Northwest 387 445 12,000 -360 Level Cleveland Center
10:32AM 42.0636 -83.1900 318° Northwest 382 440 11,300 -540 Descending Cleveland Center
10:33AM 42.1456 -83.2578 328° Northwest 361 415 11,000 -480 Descending Cleveland Center
10:34AM 42.2300 -83.2136 21° North 298 343 10,400 -1,380 Descending Cleveland Center
10:36AM 42.3192 -83.1469 29° Northeast 297 342 8,200 -1,560 Descending Cleveland Center
10:37AM 42.3892 -83.0908 31° Northeast 273 314 7,100 -600 Descending Cleveland Center
10:38AM 42.4528 -83.0369 32° Northeast 273 314 7,000 -480 Descending Cleveland Center
10:39AM 42.5044 -83.0561 345° North 186 214 6,200 -540 Descending Cleveland Center
10:40AM 42.4947 -83.1175 258° West 151 174 6,000 -120 Descending Cleveland Center
10:41AM 42.4711 -83.1533 228° Southwest 140 161 6,000 -180 Level Cleveland Center
10:42AM 42.4350 -83.1772 206° Southwest 140 161 5,700 -300 Descending Cleveland Center